createdAt,value
2023-02-27T00:50:30.057Z,58.4
2023-02-27T01:50:41.250Z,61.2
2023-02-27T02:20:42.132Z,62.2
2023-02-27T02:50:42.541Z,62.6
2023-02-27T03:20:43.164Z,63.2
2023-02-27T03:50:43.697Z,63
2023-02-27T04:20:44.124Z,63.9
2023-02-27T04:50:44.552Z,64.2
2023-02-27T05:20:44.984Z,63.3
2023-02-27T05:50:45.403Z,63.6
2023-02-27T06:20:45.882Z,64.1
2023-02-27T07:20:56.910Z,64
2023-02-27T08:21:08.219Z,43.6
2023-02-27T08:51:09.067Z,52.3
2023-02-27T09:21:09.868Z,52.9
2023-02-27T09:51:10.604Z,53
2023-02-27T10:21:11.064Z,52.9
2023-02-27T10:51:11.490Z,55.7
2023-02-27T11:21:12.022Z,53.5
2023-02-27T11:51:12.479Z,53.1
2023-02-27T12:21:12.927Z,53.3
2023-02-27T12:51:13.385Z,53.2
2023-02-27T13:51:25.099Z,53.6
2023-02-27T14:51:37.101Z,54
2023-02-27T15:21:37.621Z,54.1
2023-02-27T15:51:38.087Z,54.2
2023-02-27T16:21:38.782Z,54.2
2023-02-27T16:51:39.292Z,53.1
2023-02-27T17:21:39.739Z,52.9
2023-02-27T18:21:51.083Z,52.7
2023-02-27T18:51:51.524Z,52.5
2023-02-27T19:21:51.956Z,52.4
2023-02-27T19:51:52.773Z,52.7
2023-02-27T20:21:53.264Z,52.2
2023-02-27T20:51:53.690Z,52.2
2023-02-27T21:21:54.144Z,52.2
2023-02-27T21:51:54.589Z,52.3
2023-02-27T22:21:55.247Z,52
2023-02-27T22:51:55.674Z,52
2023-02-27T23:52:06.944Z,52.1
